createdAt,value
2018-01-25T00:01:46.541Z,100619
2018-01-25T00:04:15.573Z,100608
2018-01-25T00:06:44.199Z,100616
2018-01-25T00:09:12.373Z,100609
2018-01-25T00:11:40.553Z,100599
2018-01-25T00:14:08.748Z,100596
2018-01-25T00:16:37.725Z,100592
2018-01-25T00:19:05.895Z,100595
2018-01-25T00:21:34.072Z,100594
2018-01-25T00:24:02.342Z,100582
2018-01-25T00:26:30.637Z,100582
2018-01-25T00:28:59.757Z,100580
2018-01-25T00:34:02.419Z,100592
2018-01-25T00:36:30.716Z,100581
2018-01-25T00:38:58.874Z,100591
2018-01-25T00:41:27.241Z,100596
2018-01-25T00:43:56.182Z,100602
2018-01-25T00:46:24.369Z,100604
2018-01-25T00:48:52.563Z,100605
2018-01-25T00:51:20.728Z,100610
2018-01-25T00:53:48.894Z,100609
2018-01-25T00:56:17.131Z,100615
2018-01-25T00:58:45.304Z,100615
2018-01-25T01:01:13.463Z,100613
2018-01-25T01:03:42.385Z,100618
2018-01-25T01:06:10.640Z,100625
2018-01-25T01:08:38.900Z,100630
2018-01-25T01:11:07.100Z,100643
2018-01-25T01:13:36.271Z,100635
2018-01-25T01:16:05.311Z,100628
2018-01-25T01:18:33.488Z,100633
2018-01-25T01:21:01.782Z,100627
2018-01-25T01:23:29.956Z,100636
2018-01-25T01:25:58.143Z,100644
2018-01-25T01:31:01.531Z,100643
2018-01-25T01:33:29.749Z,100651
2018-01-25T01:35:57.916Z,100646
2018-01-25T01:38:26.860Z,100649
2018-01-25T01:40:55.014Z,100645
2018-01-25T01:43:23.279Z,100653
2018-01-25T01:45:51.595Z,100658
2018-01-25T01:48:19.794Z,100663
2018-01-25T01:50:48.721Z,100660
2018-01-25T01:53:16.892Z,100669
2018-01-25T01:55:45.077Z,100671
2018-01-25T01:58:13.250Z,100672
2018-01-25T02:00:41.435Z,100679
2018-01-25T02:03:09.600Z,100688
2018-01-25T02:05:37.779Z,100694
2018-01-25T02:08:05.992Z,100696
2018-01-25T02:10:34.962Z,100702
2018-01-25T02:13:03.152Z,100709
2018-01-25T02:15:31.327Z,100703
2018-01-25T02:17:59.514Z,100697
2018-01-25T02:20:28.434Z,100693
2018-01-25T02:22:56.619Z,100688
2018-01-25T02:25:24.815Z,100696
2018-01-25T02:27:52.986Z,100698
2018-01-25T02:30:21.160Z,100700
2018-01-25T02:32:49.327Z,100709
2018-01-25T02:35:17.506Z,100714
2018-01-25T02:37:45.650Z,100711
2018-01-25T02:40:14.859Z,100702
2018-01-25T02:42:43.023Z,100702
2018-01-25T02:45:11.185Z,100693
2018-01-25T02:47:39.432Z,100685
2018-01-25T02:50:08.427Z,100695
2018-01-25T02:52:36.564Z,100700
2018-01-25T02:55:04.764Z,100708
2018-01-25T02:57:33.695Z,100711
2018-01-25T03:00:01.898Z,100718
2018-01-25T03:02:30.075Z,100712
2018-01-25T03:04:58.238Z,100698
2018-01-25T03:07:26.387Z,100682
2018-01-25T03:09:54.585Z,100681
2018-01-25T03:12:23.035Z,100677
2018-01-25T03:14:51.186Z,100676
2018-01-25T03:17:19.342Z,100685
2018-01-25T03:19:48.250Z,100705
2018-01-25T03:22:16.441Z,100717
2018-01-25T03:24:44.579Z,100719
2018-01-25T03:27:13.525Z,100715
2018-01-25T03:29:41.696Z,100700
2018-01-25T03:32:09.887Z,100736
2018-01-25T03:34:38.025Z,100714
2018-01-25T03:37:06.237Z,100717
2018-01-25T03:39:34.382Z,100709
2018-01-25T03:42:02.666Z,100722
2018-01-25T03:44:30.921Z,100719
2018-01-25T03:46:59.094Z,100722
2018-01-25T03:49:27.251Z,100736
2018-01-25T03:51:55.381Z,100757
2018-01-25T03:54:23.519Z,100765
2018-01-25T03:56:51.685Z,100759
2018-01-25T03:59:19.833Z,100757
2018-01-25T04:01:48.006Z,100779
2018-01-25T04:04:16.175Z,100770
2018-01-25T04:06:44.614Z,100769
2018-01-25T04:09:12.770Z,100767
2018-01-25T04:11:40.920Z,100767
2018-01-25T04:14:09.077Z,100764
2018-01-25T04:16:37.223Z,100773
2018-01-25T04:19:05.368Z,100781
2018-01-25T04:21:33.517Z,100776
2018-01-25T04:24:01.986Z,100781
2018-01-25T04:26:30.392Z,100769
2018-01-25T04:28:58.582Z,100776
2018-01-25T04:31:26.717Z,100771
2018-01-25T04:33:54.865Z,100784
2018-01-25T04:36:23.775Z,100787
2018-01-25T04:38:51.918Z,100795
2018-01-25T04:41:20.869Z,100799
2018-01-25T04:43:49.006Z,100800
2018-01-25T04:46:17.195Z,100803
2018-01-25T04:48:45.346Z,100800
2018-01-25T04:51:13.567Z,100798
2018-01-25T04:53:41.732Z,100791
2018-01-25T04:56:09.910Z,100791
2018-01-25T04:58:38.057Z,100795
2018-01-25T05:01:06.223Z,100798
2018-01-25T05:03:34.379Z,100782
2018-01-25T05:06:02.554Z,100793
2018-01-25T05:08:30.749Z,100797
2018-01-25T05:10:58.901Z,100798
2018-01-25T05:13:27.056Z,100799
2018-01-25T05:15:55.990Z,100799
2018-01-25T05:18:24.134Z,100806
2018-01-25T05:20:52.427Z,100819
2018-01-25T05:23:20.674Z,100804
2018-01-25T05:25:49.663Z,100808
2018-01-25T05:28:18.607Z,100819
2018-01-25T05:30:46.738Z,100819
2018-01-25T05:33:14.871Z,100808
2018-01-25T05:35:43.011Z,100818
2018-01-25T05:38:11.174Z,100826
2018-01-25T05:40:39.345Z,100830
2018-01-25T05:43:07.500Z,100825
2018-01-25T05:45:36.443Z,100837
2018-01-25T05:48:04.697Z,100832
2018-01-25T05:50:32.925Z,100835
2018-01-25T05:53:01.845Z,100835
2018-01-25T05:55:30.006Z,100851
2018-01-25T05:57:58.165Z,100834
2018-01-25T06:00:27.087Z,100838
2018-01-25T06:02:55.238Z,100846
2018-01-25T06:05:24.145Z,100860
2018-01-25T06:07:52.367Z,100863
2018-01-25T06:10:20.540Z,100869
2018-01-25T06:12:48.738Z,100862
2018-01-25T06:15:16.914Z,100874
2018-01-25T06:17:45.822Z,100881
2018-01-25T06:20:13.972Z,100872
2018-01-25T06:22:42.917Z,100877
2018-01-25T06:25:11.074Z,100882
2018-01-25T06:27:39.228Z,100878
2018-01-25T06:30:07.395Z,100879
2018-01-25T06:32:35.538Z,100888
2018-01-25T06:35:03.769Z,100884
2018-01-25T06:37:31.912Z,100887
2018-01-25T06:40:00.067Z,100888
2018-01-25T06:42:28.231Z,100892
2018-01-25T06:44:56.427Z,100879
2018-01-25T06:47:24.601Z,100880
2018-01-25T06:49:53.533Z,100881
2018-01-25T06:52:21.679Z,100892
2018-01-25T06:54:49.876Z,100877
2018-01-25T06:57:18.220Z,100884
2018-01-25T06:59:47.157Z,100881
2018-01-25T07:02:15.370Z,100897
2018-01-25T07:04:44.279Z,100897
2018-01-25T07:07:12.530Z,100903
2018-01-25T07:09:41.444Z,100916
2018-01-25T07:12:09.630Z,100904
2018-01-25T07:14:37.800Z,100906
2018-01-25T07:17:08.290Z,100917
2018-01-25T07:19:37.229Z,100922
2018-01-25T07:22:05.409Z,100919
2018-01-25T07:24:33.625Z,100922
2018-01-25T07:27:01.770Z,100936
2018-01-25T07:29:29.949Z,100931
2018-01-25T07:31:58.100Z,100933
2018-01-25T07:34:26.373Z,100933
2018-01-25T07:36:54.524Z,100928
2018-01-25T07:39:22.756Z,100936
2018-01-25T07:41:50.924Z,100941
2018-01-25T07:44:19.054Z,100938
2018-01-25T07:46:47.220Z,100947
2018-01-25T07:49:15.459Z,100944
2018-01-25T07:51:43.607Z,100954
2018-01-25T07:54:11.734Z,100953
2018-01-25T07:56:39.914Z,100958
2018-01-25T07:59:08.062Z,100954
2018-01-25T08:01:37.017Z,100954
2018-01-25T08:04:05.475Z,100953
2018-01-25T08:06:33.684Z,100947
2018-01-25T08:09:01.861Z,100943
2018-01-25T08:11:30.043Z,100944
2018-01-25T08:14:00.106Z,100949
2018-01-25T08:16:33.685Z,100949
2018-01-25T08:19:01.870Z,100958
2018-01-25T08:21:30.057Z,100958
2018-01-25T08:23:58.250Z,100962
2018-01-25T08:26:26.402Z,100970
2018-01-25T08:28:54.543Z,100972
2018-01-25T08:31:22.716Z,100963
2018-01-25T08:33:50.871Z,100969
2018-01-25T08:36:19.807Z,100970
2018-01-25T08:38:48.833Z,100976
2018-01-25T08:41:17.028Z,100968
2018-01-25T08:43:46.096Z,100976
2018-01-25T08:46:14.243Z,100982
2018-01-25T08:48:42.417Z,100982
2018-01-25T08:51:10.551Z,100974
2018-01-25T08:53:38.760Z,100977
2018-01-25T08:56:06.950Z,100977
2018-01-25T08:58:35.088Z,100979
2018-01-25T09:01:03.239Z,100968
2018-01-25T09:03:32.164Z,100971
2018-01-25T09:06:00.348Z,100979
2018-01-25T09:08:28.576Z,100988
2018-01-25T09:10:56.733Z,100991
2018-01-25T09:13:24.876Z,100995
2018-01-25T09:15:53.059Z,100999
2018-01-25T09:18:21.230Z,101001
2018-01-25T09:20:49.385Z,100990
2018-01-25T09:23:17.646Z,101000
2018-01-25T09:25:45.842Z,101001
2018-01-25T09:28:14.022Z,100996
2018-01-25T09:30:42.181Z,100999
2018-01-25T09:33:10.326Z,100984
2018-01-25T09:35:38.486Z,100991
2018-01-25T09:38:06.648Z,100984
2018-01-25T09:40:34.871Z,100998
2018-01-25T09:43:03.034Z,101007
2018-01-25T09:45:31.297Z,101009
2018-01-25T09:47:59.471Z,101014
2018-01-25T09:50:27.644Z,101000
2018-01-25T09:52:55.904Z,100992
2018-01-25T09:55:24.178Z,100998
2018-01-25T09:57:52.475Z,101001
2018-01-25T10:00:20.642Z,101013
2018-01-25T10:15:08.356Z,101003
2018-01-25T10:17:36.498Z,101005
2018-01-25T10:20:04.710Z,101019
2018-01-25T10:22:35.847Z,101015
2018-01-25T10:25:04.192Z,101025
2018-01-25T10:27:32.413Z,101037
2018-01-25T10:30:01.433Z,101038
2018-01-25T10:32:29.536Z,101029
2018-01-25T10:34:57.705Z,101028
2018-01-25T10:37:25.936Z,101037
2018-01-25T10:39:54.087Z,101042
2018-01-25T10:42:22.262Z,101030
2018-01-25T10:44:51.181Z,101042
2018-01-25T10:47:35.663Z,101028
2018-01-25T10:50:03.831Z,101037
2018-01-25T10:52:33.032Z,101031
2018-01-25T10:58:20.315Z,101025
2018-01-25T11:01:02.539Z,101027
2018-01-25T11:03:31.512Z,101033
2018-01-25T11:05:59.733Z,101027
2018-01-25T11:11:37.969Z,101019
2018-01-25T11:14:07.085Z,101017
2018-01-25T11:16:36.424Z,101019
2018-01-25T11:19:04.621Z,101018
2018-01-25T11:21:37.849Z,101016
2018-01-25T11:24:06.085Z,101009
2018-01-25T11:26:34.898Z,101015
2018-01-25T11:29:03.824Z,101014
2018-01-25T11:31:31.997Z,101010
2018-01-25T11:34:00.274Z,101014
2018-01-25T11:36:28.412Z,101015
2018-01-25T11:38:57.311Z,101009
2018-01-25T11:41:25.494Z,101010
2018-01-25T11:43:53.709Z,101017
2018-01-25T11:46:21.986Z,101010
2018-01-25T11:48:50.155Z,101015
2018-01-25T11:51:18.348Z,101006
2018-01-25T11:53:46.452Z,101012
2018-01-25T11:56:14.602Z,101005
2018-01-25T11:58:43.528Z,101007
2018-01-25T12:01:11.692Z,100997
2018-01-25T12:03:39.868Z,101005
2018-01-25T12:06:08.034Z,101008
2018-01-25T12:08:36.202Z,101009
2018-01-25T12:11:04.346Z,101013
2018-01-25T12:13:32.756Z,101015
2018-01-25T12:16:00.969Z,101010
2018-01-25T12:18:29.154Z,101008
2018-01-25T12:20:57.593Z,101010
2018-01-25T12:23:25.871Z,101004
2018-01-25T12:25:54.838Z,101004
2018-01-25T12:28:23.746Z,101008
2018-01-25T12:30:51.984Z,101014
2018-01-25T12:33:20.126Z,101008
2018-01-25T12:35:48.323Z,101006
2018-01-25T12:38:16.577Z,101016
2018-01-25T12:40:44.869Z,101015
2018-01-25T12:43:13.018Z,101021
2018-01-25T12:45:41.155Z,101017
2018-01-25T12:48:09.337Z,101019
2018-01-25T12:50:37.589Z,101019
2018-01-25T12:53:05.882Z,101029
2018-01-25T12:55:34.094Z,101033
2018-01-25T12:58:02.307Z,101022
2018-01-25T13:00:30.460Z,101020
2018-01-25T13:02:58.682Z,101018
2018-01-25T13:05:26.878Z,101013
2018-01-25T13:07:55.127Z,101016
2018-01-25T13:10:23.266Z,101007
2018-01-25T13:12:51.454Z,101002
2018-01-25T13:15:20.450Z,101005
2018-01-25T13:17:49.380Z,100987
2018-01-25T13:20:17.557Z,100990
2018-01-25T13:22:45.704Z,100993
2018-01-25T13:25:13.852Z,100992
2018-01-25T13:27:42.795Z,100988
2018-01-25T13:30:11.154Z,100985
2018-01-25T13:32:39.343Z,100995
2018-01-25T13:35:07.442Z,100990
2018-01-25T13:37:35.803Z,100988
2018-01-25T13:40:03.942Z,100982
2018-01-25T13:42:32.250Z,100979
2018-01-25T13:45:00.533Z,100980
2018-01-25T13:47:28.718Z,100968
2018-01-25T13:49:56.895Z,100974
2018-01-25T13:52:30.661Z,100965
2018-01-25T13:54:58.960Z,100980
2018-01-25T13:57:27.183Z,100986
2018-01-25T13:59:55.411Z,100989
2018-01-25T14:02:23.562Z,100986
2018-01-25T14:04:51.753Z,100992
2018-01-25T14:07:19.916Z,101000
2018-01-25T14:09:48.089Z,100993
2018-01-25T14:12:16.285Z,100993
2018-01-25T14:14:44.416Z,101000
2018-01-25T14:17:12.723Z,100996
2018-01-25T14:19:40.873Z,100996
2018-01-25T14:22:09.080Z,100995
2018-01-25T14:24:37.224Z,100994
2018-01-25T14:27:05.591Z,101000
2018-01-25T14:29:33.820Z,100998
2018-01-25T14:32:02.772Z,101004
2018-01-25T14:34:31.134Z,101014
2018-01-25T14:36:59.412Z,101011
2018-01-25T14:39:27.772Z,101010
2018-01-25T14:41:56.136Z,101009
2018-01-25T14:44:24.360Z,101006
2018-01-25T14:46:52.584Z,101011
2018-01-25T14:49:20.819Z,101010
2018-01-25T14:51:48.985Z,101016
2018-01-25T14:54:17.466Z,100999
2018-01-25T14:56:45.761Z,101018
2018-01-25T14:59:13.911Z,101018
2018-01-25T15:01:42.204Z,101009
2018-01-25T15:04:10.371Z,101020
2018-01-25T15:06:39.630Z,101009
2018-01-25T15:09:07.799Z,101011
2018-01-25T15:11:35.973Z,101016
2018-01-25T15:14:04.175Z,101016
2018-01-25T15:16:32.326Z,101013
2018-01-25T15:19:00.614Z,101005
2018-01-25T15:21:29.592Z,101010
2018-01-25T15:23:57.789Z,101011
2018-01-25T15:26:26.016Z,101016
2018-01-25T15:28:54.184Z,101017
2018-01-25T15:31:22.344Z,101016
2018-01-25T15:33:51.269Z,101014
2018-01-25T15:36:19.470Z,101010
2018-01-25T15:38:47.696Z,101016
2018-01-25T15:41:15.902Z,101027
2018-01-25T15:43:44.112Z,101022
2018-01-25T15:46:13.214Z,101027
2018-01-25T15:48:42.215Z,101020
2018-01-25T15:51:11.169Z,101021
2018-01-25T15:53:39.336Z,101018
2018-01-25T15:56:07.505Z,101030
2018-01-25T15:58:35.632Z,101030
2018-01-25T16:01:04.555Z,101028
2018-01-25T16:03:32.725Z,101033
2018-01-25T16:06:01.064Z,101026
2018-01-25T16:08:29.953Z,101031
2018-01-25T16:10:58.925Z,101040
2018-01-25T16:13:27.155Z,101042
2018-01-25T16:15:55.304Z,101033
2018-01-25T16:18:23.537Z,101041
2018-01-25T16:20:51.684Z,101044
2018-01-25T16:23:19.870Z,101033
2018-01-25T16:25:48.077Z,101044
2018-01-25T16:28:22.088Z,101046
2018-01-25T16:30:51.026Z,101040
2018-01-25T16:33:20.029Z,101040
2018-01-25T16:35:48.280Z,101043
2018-01-25T16:38:16.458Z,101047
2018-01-25T16:40:44.675Z,101044
2018-01-25T16:43:12.837Z,101040
2018-01-25T16:45:41.020Z,101033
2018-01-25T16:48:09.216Z,101041
2018-01-25T16:50:38.552Z,101034
2018-01-25T16:53:06.703Z,101046
2018-01-25T16:55:34.868Z,101043
2018-01-25T16:58:03.945Z,101040
2018-01-25T17:00:32.133Z,101049
2018-01-25T17:03:01.064Z,101054
2018-01-25T17:05:29.502Z,101058
2018-01-25T17:07:58.481Z,101058
2018-01-25T17:10:26.635Z,101056
2018-01-25T17:12:54.815Z,101064
2018-01-25T17:15:22.928Z,101064
2018-01-25T17:17:51.077Z,101055
2018-01-25T17:20:20.166Z,101053
2018-01-25T17:22:48.372Z,101049
2018-01-25T17:25:16.518Z,101054
2018-01-25T17:27:45.482Z,101057
2018-01-25T17:30:13.685Z,101061
2018-01-25T17:32:41.950Z,101061
2018-01-25T17:35:10.112Z,101064
2018-01-25T17:37:38.362Z,101069
2018-01-25T17:40:06.522Z,101081
2018-01-25T17:42:34.708Z,101079
2018-01-25T17:45:02.873Z,101083
2018-01-25T17:47:31.043Z,101080
2018-01-25T17:49:59.285Z,101095
2018-01-25T17:52:28.246Z,101100
2018-01-25T17:54:56.406Z,101091
2018-01-25T17:57:24.577Z,101088
2018-01-25T17:59:52.728Z,101094
2018-01-25T18:02:20.899Z,101099
2018-01-25T18:04:49.061Z,101105
2018-01-25T18:07:17.240Z,101092
2018-01-25T18:09:45.467Z,101110
2018-01-25T18:12:13.762Z,101111
2018-01-25T18:14:42.655Z,101106
2018-01-25T18:17:10.927Z,101108
2018-01-25T18:19:39.874Z,101108
2018-01-25T18:22:08.144Z,101117
2018-01-25T18:24:36.381Z,101107
2018-01-25T18:27:04.646Z,101094
2018-01-25T18:29:33.856Z,101087
2018-01-25T18:32:02.076Z,101092
2018-01-25T18:34:30.320Z,101096
2018-01-25T18:36:58.480Z,101095
2018-01-25T18:39:26.741Z,101088
2018-01-25T18:41:54.899Z,101100
2018-01-25T18:44:24.915Z,101104
2018-01-25T18:46:53.081Z,101114
2018-01-25T18:49:22.028Z,101121
2018-01-25T18:51:50.199Z,101115
2018-01-25T18:54:18.342Z,101120
2018-01-25T18:56:46.540Z,101131
2018-01-25T18:59:14.727Z,101130
2018-01-25T19:01:42.900Z,101125
2018-01-25T19:04:11.081Z,101122
2018-01-25T19:06:39.259Z,101111
2018-01-25T19:09:07.527Z,101120
2018-01-25T19:11:35.722Z,101113
2018-01-25T19:14:04.747Z,101109
2018-01-25T19:16:33.017Z,101093
2018-01-25T19:19:01.239Z,101102
2018-01-25T19:21:29.413Z,101094
2018-01-25T19:26:32.447Z,101103
2018-01-25T19:29:00.588Z,101101
2018-01-25T19:31:28.839Z,101100
2018-01-25T19:33:57.095Z,101105
2018-01-25T19:36:26.054Z,101120
2018-01-25T19:38:54.293Z,101119
2018-01-25T19:41:22.473Z,101117
2018-01-25T19:43:50.646Z,101124
2018-01-25T19:46:18.983Z,101119
2018-01-25T19:48:52.603Z,101108
2018-01-25T19:51:20.816Z,101109
2018-01-25T19:53:49.012Z,101108
2018-01-25T19:56:18.424Z,101106
2018-01-25T19:58:46.635Z,101090
2018-01-25T20:01:14.951Z,101096
2018-01-25T20:03:43.196Z,101096
2018-01-25T20:06:11.705Z,101103
2018-01-25T20:08:41.256Z,101109
2018-01-25T20:11:09.507Z,101101
2018-01-25T20:13:38.496Z,101105
2018-01-25T20:16:07.485Z,101112
2018-01-25T20:18:39.449Z,101105
2018-01-25T20:21:08.594Z,101113
2018-01-25T20:23:36.814Z,101110
2018-01-25T20:26:05.934Z,101118
2018-01-25T20:28:34.165Z,101107
2018-01-25T20:31:02.359Z,101106
2018-01-25T20:33:31.338Z,101101
2018-01-25T20:36:00.298Z,101089
2018-01-25T20:38:29.490Z,101105
2018-01-25T20:40:57.800Z,101107
2018-01-25T20:43:26.294Z,101110
2018-01-25T20:45:54.625Z,101113
2018-01-25T20:48:22.914Z,101096
2018-01-25T20:50:51.114Z,101102
2018-01-25T20:53:20.088Z,101110
2018-01-25T20:55:48.278Z,101116
2018-01-25T20:58:17.296Z,101116
2018-01-25T21:00:45.500Z,101114
2018-01-25T21:03:13.673Z,101119
2018-01-25T21:05:41.859Z,101116
2018-01-25T21:08:10.106Z,101113
2018-01-25T21:10:38.339Z,101114
2018-01-25T21:13:07.365Z,101115
2018-01-25T21:15:35.548Z,101110
2018-01-25T21:18:03.816Z,101130
2018-01-25T21:20:32.121Z,101130
2018-01-25T21:23:00.370Z,101130
2018-01-25T21:25:29.339Z,101129
2018-01-25T21:27:57.639Z,101124
2018-01-25T21:30:25.827Z,101134
2018-01-25T21:32:54.000Z,101127
2018-01-25T21:35:22.246Z,101131
2018-01-25T21:37:50.488Z,101133
2018-01-25T21:40:18.730Z,101123
2018-01-25T21:42:46.923Z,101133
2018-01-25T21:45:15.139Z,101133
2018-01-25T21:47:43.434Z,101140
2018-01-25T21:50:11.607Z,101140
2018-01-25T21:52:39.810Z,101137
2018-01-25T21:55:08.002Z,101125
2018-01-25T21:57:36.279Z,101133
2018-01-25T22:00:04.505Z,101129
2018-01-25T22:02:32.781Z,101135
2018-01-25T22:05:01.012Z,101145
2018-01-25T22:07:29.229Z,101144
2018-01-25T22:09:57.506Z,101151
2018-01-25T22:12:25.722Z,101143
2018-01-25T22:14:53.909Z,101154
2018-01-25T22:17:22.098Z,101154
2018-01-25T22:19:50.726Z,101150
2018-01-25T22:22:18.961Z,101152
2018-01-25T22:24:47.285Z,101156
2018-01-25T22:27:15.624Z,101158
2018-01-25T22:29:43.855Z,101145
2018-01-25T22:32:12.069Z,101150
2018-01-25T22:34:40.230Z,101152
2018-01-25T22:37:08.498Z,101158
2018-01-25T22:39:37.417Z,101163
2018-01-25T22:42:05.582Z,101164
2018-01-25T22:44:33.736Z,101158
2018-01-25T22:47:02.785Z,101159
2018-01-25T22:49:30.957Z,101157
2018-01-25T22:51:59.090Z,101160
2018-01-25T22:54:27.261Z,101150
2018-01-25T22:56:55.532Z,101143
2018-01-25T22:59:24.442Z,101141
2018-01-25T23:01:52.665Z,101161
2018-01-25T23:04:21.044Z,101160
2018-01-25T23:06:49.350Z,101173
2018-01-25T23:09:17.608Z,101170
2018-01-25T23:11:46.555Z,101156
2018-01-25T23:14:14.802Z,101163
2018-01-25T23:16:43.708Z,101154
2018-01-25T23:19:11.875Z,101160
2018-01-25T23:21:40.101Z,101171
2018-01-25T23:24:09.038Z,101182
2018-01-25T23:26:37.368Z,101178
2018-01-25T23:29:05.919Z,101181
2018-01-25T23:31:34.084Z,101175
2018-01-25T23:34:02.251Z,101173
2018-01-25T23:36:30.423Z,101168
2018-01-25T23:38:58.577Z,101161
2018-01-25T23:41:26.737Z,101163
2018-01-25T23:43:54.976Z,101167
2018-01-25T23:46:23.121Z,101164
2018-01-25T23:48:51.281Z,101162
2018-01-25T23:51:19.479Z,101166
2018-01-25T23:53:47.665Z,101162
2018-01-25T23:56:15.868Z,101159
2018-01-25T23:58:44.800Z,101156
